This is the latest recevied weather packets stored in our database for station/object OM1PU-6. If no packets are shown the sender has not sent any weather packets the latest 10 day(s).
| Time | Temp. | Humidity | Pressure | Rain* | Wind** | Luminosity | Snow |
|---|---|---|---|---|---|---|---|
| 1788590461 | 21.67° C | 54% | 1015.5 hPa | 0 mm | - | - | - |
| 1788589560 | 21.67° C | 57% | 1015.3 hPa | 0 mm | - | - | - |
| 1788588661 | 22.22° C | 56% | 1014.8 hPa | 0 mm | - | - | - |
| 1788587760 | 21.67° C | 56% | 1013.8 hPa | 0 mm | - | - | - |
| 1788586861 | 21.67° C | 57% | 1013.6 hPa | 0 mm | - | - | - |
| 1788585960 | 21.67° C | 56% | 1013.2 hPa | 0 mm | - | - | - |
| 1788585060 | 22.22° C | 55% | 1012.7 hPa | 0 mm | - | - | - |
| 1788565261 | 21.11° C | 70% | 1008.8 hPa | 0 mm | - | - | - |
| 1788561666 | 22.22° C | 66% | 1008.6 hPa | 0 mm | - | - | - |
| 1788560760 | 22.22° C | 65% | 1008.8 hPa | 0 mm | - | - | - |
| 1788559860 | 22.78° C | 63% | 1008.7 hPa | 0 mm | - | - | - |
| 1788558960 | 22.78° C | 63% | 1008.9 hPa | 0 mm | - | - | - |
| 1788556260 | 23.89° C | 58% | 1008.7 hPa | 0 mm | - | - | - |
| 1788555361 | 24.44° C | 57% | 1008.6 hPa | 0 mm | - | - | - |
| 1788553561 | 25° C | 56% | 1009 hPa | 0 mm | - | - | - |
| 1788552661 | 25.56° C | 56% | 1008.8 hPa | 0 mm | - | - | - |
| 1788551760 | 26.11° C | 53% | 1009 hPa | 0 mm | - | - | - |
| 1788549960 | 26.67° C | 50% | 1009.1 hPa | 0 mm | - | - | - |
| 1788549060 | 26.67° C | 50% | 1009.1 hPa | 0 mm | - | - | - |
| 1788548160 | 26.67° C | 49% | 1009 hPa | 0 mm | - | - | - |
| 1788546360 | 27.22° C | 48% | 1009.1 hPa | 0 mm | - | - | - |
| 1788544561 | 27.78° C | 48% | 1009.1 hPa | 0 mm | - | - | - |
| 1788540961 | 30° C | 43% | 1009.3 hPa | 0 mm | - | - | - |
| 1788539159 | 31.11° C | 41% | 1009.6 hPa | 0 mm | - | - | - |
| 1788538259 | 31.67° C | 40% | 1009.7 hPa | 0 mm | - | - | - |
* Rain latest 24 hours (hover to see other rain measurements)
** Current wind speed in m/s (hover to see current wind gust speed)